Time;durP1;ratioP1;P1;durP2;ratioP2;P2;SDS_P1;SDS_P2;PMS_P1;PMS_P2;Temp;Humidity;BMP_temperature;BMP_pressure;BME280_temperature;BME280_humidity;BME280_pressure;Samples;Min_cycle;Max_cycle;Signal;HPM_P1;HPM_P2
2021/12/04 00:00:29;;;;;;;13.25;10.27;;;4.90;99.90;;;;;;6184385;23;20001;-73
2021/12/04 00:02:55;;;;;;;13.90;9.82;;;4.90;99.90;;;;;;6184193;23;20063;-73
2021/12/04 00:05:22;;;;;;;15.77;10.43;;;4.90;99.90;;;;;;6182093;23;20032;-73
2021/12/04 00:07:48;;;;;;;15.20;10.07;;;5.00;99.90;;;;;;6186150;23;20314;-72
2021/12/04 00:10:20;;;;;;;15.88;9.85;;;5.00;99.90;;;;;;6184687;23;20016;-72
2021/12/04 00:12:46;;;;;;;12.43;9.63;;;5.00;99.90;;;;;;6186316;23;20425;-72
2021/12/04 00:15:12;;;;;;;14.18;10.52;;;5.10;99.90;;;;;;6186277;23;19997;-73
2021/12/04 00:17:38;;;;;;;14.40;10.50;;;5.10;99.90;;;;;;6186090;23;20028;-73
2021/12/04 00:20:06;;;;;;;14.38;10.43;;;5.10;99.90;;;;;;6184872;23;20333;-73
2021/12/04 00:22:31;;;;;;;15.80;10.77;;;5.00;99.90;;;;;;6186681;23;20001;-72
2021/12/04 00:24:57;;;;;;;14.95;10.98;;;5.00;99.90;;;;;;6186389;23;20328;-72
2021/12/04 00:27:23;;;;;;;14.32;10.57;;;5.00;99.90;;;;;;6183870;23;20011;-72
2021/12/04 00:29:49;;;;;;;12.98;10.32;;;5.10;99.90;;;;;;6185554;23;20076;-73
2021/12/04 00:32:24;;;;;;;12.32;9.95;;;5.00;99.90;;;;;;6185344;23;20068;-73
2021/12/04 00:34:55;;;;;;;11.38;9.18;;;5.00;99.90;;;;;;6185261;23;20460;-73
2021/12/04 00:50:43;;;;;;;12.65;9.70;;;5.10;99.90;;;;;;6186010;23;20020;-73
2021/12/04 00:53:09;;;;;;;12.73;9.68;;;5.10;99.90;;;;;;6185789;23;20005;-73
2021/12/04 00:55:35;;;;;;;14.32;10.57;;;5.10;99.90;;;;;;6186194;23;19997;-73
2021/12/04 00:58:01;;;;;;;13.95;9.75;;;5.20;99.90;;;;;;6185784;23;19997;-72
2021/12/04 01:00:26;;;;;;;15.10;9.90;;;5.20;99.90;;;;;;6184748;23;20005;-73
2021/12/04 01:02:52;;;;;;;15.70;9.98;;;5.20;99.90;;;;;;6186712;23;20425;-79
2021/12/04 01:05:18;;;;;;;11.48;9.15;;;5.20;99.90;;;;;;6185314;23;20051;-79
2021/12/04 01:07:44;;;;;;;12.57;9.50;;;5.20;99.90;;;;;;6186544;23;20001;-79
2021/12/04 01:10:10;;;;;;;14.48;9.38;;;5.30;99.90;;;;;;6186331;23;19997;-79
2021/12/04 01:12:36;;;;;;;15.07;10.68;;;5.30;99.90;;;;;;6181130;23;20002;-79
2021/12/04 01:15:02;;;;;;;12.30;9.90;;;5.30;99.90;;;;;;6182656;23;20001;-78
2021/12/04 01:17:28;;;;;;;12.65;9.65;;;5.30;99.90;;;;;;6182304;23;19993;-79
2021/12/04 01:19:54;;;;;;;13.90;9.63;;;5.30;99.90;;;;;;6182837;23;20024;-79
2021/12/04 01:22:21;;;;;;;18.90;9.80;;;5.30;99.90;;;;;;6184387;23;20084;-79
2021/12/04 01:24:49;;;;;;;14.30;9.68;;;5.20;99.90;;;;;;6184767;23;20005;-79
2021/12/04 01:27:15;;;;;;;13.10;10.70;;;5.30;99.90;;;;;;6183192;23;20005;-78
2021/12/04 01:29:42;;;;;;;13.35;10.13;;;5.30;99.90;;;;;;6185053;23;20012;-79
2021/12/04 01:32:09;;;;;;;13.52;9.80;;;5.20;99.90;;;;;;6184729;23;20011;-79
2021/12/04 01:34:36;;;;;;;12.13;9.73;;;5.30;99.90;;;;;;6183462;23;20084;-79
2021/12/04 01:37:03;;;;;;;14.60;10.18;;;5.20;99.90;;;;;;6184427;23;20004;-79
2021/12/04 01:39:30;;;;;;;10.70;8.38;;;5.20;99.90;;;;;;6185146;23;20368;-78
2021/12/04 01:41:55;;;;;;;13.13;8.68;;;5.20;99.90;;;;;;6184508;23;20444;-78
2021/12/04 01:44:22;;;;;;;11.77;9.18;;;5.20;99.90;;;;;;6184675;23;20039;-78
2021/12/04 01:46:48;;;;;;;13.35;9.50;;;5.20;99.90;;;;;;6184365;23;21479;-79
2021/12/04 01:49:15;;;;;;;12.18;8.70;;;5.20;99.90;;;;;;6184828;23;20008;-79
2021/12/04 01:51:41;;;;;;;15.43;9.95;;;5.20;99.90;;;;;;6184887;23;20011;-79
2021/12/04 01:54:07;;;;;;;12.27;8.75;;;5.20;99.90;;;;;;6184752;23;20397;-79
2021/12/04 01:56:34;;;;;;;13.18;8.75;;;5.20;99.90;;;;;;6184234;23;20511;-78
2021/12/04 01:59:01;;;;;;;11.95;8.32;;;5.20;99.90;;;;;;6184332;23;20055;-78
2021/12/04 02:01:27;;;;;;;11.15;8.45;;;5.10;99.90;;;;;;6184527;23;20008;-78
2021/12/04 02:03:52;;;;;;;11.07;8.55;;;5.00;99.90;;;;;;6182858;23;20245;-79
2021/12/04 02:06:19;;;;;;;10.30;7.78;;;5.10;99.90;;;;;;6184913;23;20032;-79
2021/12/04 02:08:54;;;;;;;10.48;8.10;;;5.10;99.90;;;;;;6185712;23;20008;-78
2021/12/04 02:11:24;;;;;;;10.60;8.20;;;5.00;99.90;;;;;;6184238;23;20015;-78
2021/12/04 02:13:50;;;;;;;13.43;9.43;;;5.10;99.90;;;;;;6183402;23;20013;-73
2021/12/04 02:16:18;;;;;;;9.57;7.80;;;5.10;99.90;;;;;;6183199;23;20008;-72
2021/12/04 02:18:45;;;;;;;8.98;7.88;;;5.00;99.90;;;;;;6184247;23;19993;-72
2021/12/04 02:21:11;;;;;;;10.95;8.07;;;5.00;99.90;;;;;;6182448;23;20005;-72
2021/12/04 02:23:36;;;;;;;10.98;8.60;;;5.00;99.90;;;;;;6184207;23;20031;-72
2021/12/04 02:26:02;;;;;;;10.90;8.48;;;4.90;99.90;;;;;;6182337;23;20473;-72
2021/12/04 02:28:28;;;;;;;9.50;7.95;;;4.90;99.90;;;;;;6183998;23;20028;-72
2021/12/04 02:30:54;;;;;;;9.88;7.97;;;4.90;99.90;;;;;;6182432;23;20009;-72
2021/12/04 02:33:21;;;;;;;9.40;7.35;;;4.90;99.90;;;;;;6184013;23;20008;-72
2021/12/04 02:35:53;;;;;;;10.57;7.85;;;4.90;99.90;;;;;;6184048;23;20001;-74
2021/12/04 02:38:23;;;;;;;10.85;7.63;;;4.90;99.90;;;;;;6184131;23;20337;-74
2021/12/04 02:40:50;;;;;;;7.75;6.95;;;4.90;99.90;;;;;;6183825;23;19997;-74
2021/12/04 02:43:16;;;;;;;8.82;7.00;;;4.80;99.90;;;;;;6184024;23;20076;-74
2021/12/04 02:45:43;;;;;;;10.40;7.18;;;4.80;99.90;;;;;;6183889;23;20107;-72
2021/12/04 02:48:10;;;;;;;8.82;7.38;;;4.80;99.90;;;;;;6183804;23;20005;-72
2021/12/04 02:50:35;;;;;;;8.25;7.35;;;4.80;99.90;;;;;;6183907;23;20372;-72
2021/12/04 02:53:01;;;;;;;10.07;7.15;;;4.80;99.90;;;;;;6182158;23;20055;-72
2021/12/04 02:55:27;;;;;;;9.60;7.72;;;4.80;99.90;;;;;;6182014;23;20009;-72
2021/12/04 02:57:53;;;;;;;8.13;7.15;;;4.70;99.90;;;;;;6183832;23;20001;-72
2021/12/04 03:00:22;;;;;;;7.25;6.55;;;4.70;99.90;;;;;;6183700;23;19997;-72
2021/12/04 03:02:48;;;;;;;9.35;7.32;;;4.70;99.90;;;;;;6183719;23;20441;-72
2021/12/04 03:05:21;;;;;;;10.25;8.10;;;4.70;99.90;;;;;;6183636;23;20031;-72
2021/12/04 03:07:46;;;;;;;9.63;6.72;;;4.70;99.90;;;;;;6183604;23;20008;-74
2021/12/04 03:10:13;;;;;;;8.43;6.88;;;4.60;99.90;;;;;;6180581;23;20005;-72
2021/12/04 03:12:40;;;;;;;9.90;7.45;;;4.70;99.90;;;;;;6180953;23;20432;-72
2021/12/04 03:15:07;;;;;;;9.48;7.38;;;4.70;99.90;;;;;;6181711;23;20447;-72
2021/12/04 03:17:33;;;;;;;10.30;6.97;;;4.60;99.90;;;;;;6181841;23;20050;-72
2021/12/04 03:19:59;;;;;;;8.20;7.22;;;4.60;99.90;;;;;;6181716;23;20004;-72
2021/12/04 03:22:25;;;;;;;8.05;6.90;;;4.60;99.90;;;;;;6181798;23;20001;-72
2021/12/04 03:24:52;;;;;;;10.05;6.88;;;4.60;99.90;;;;;;6180279;23;20080;-72
2021/12/04 03:27:19;;;;;;;8.45;6.75;;;4.60;99.90;;;;;;6181771;23;20001;-72
2021/12/04 03:29:56;;;;;;;8.93;7.10;;;4.70;99.90;;;;;;6181605;23;20185;-72
2021/12/04 03:40:39;;;;;;;8.23;6.75;;;4.70;99.90;;;;;;6183415;23;20012;-74
2021/12/04 03:43:07;;;;;;;7.40;6.68;;;4.70;99.90;;;;;;6183858;23;20011;-74
2021/12/04 03:45:35;;;;;;;9.63;6.95;;;4.80;99.90;;;;;;6185379;23;20031;-74
2021/12/04 03:50:46;;;;;;;7.82;6.22;;;4.70;99.90;;;;;;6185700;23;20048;-74
2021/12/04 03:53:11;;;;;;;10.23;6.97;;;4.70;99.90;;;;;;6185108;23;20005;-72
2021/12/04 03:55:39;;;;;;;8.13;6.78;;;4.70;99.90;;;;;;6185251;23;20001;-72
2021/12/04 03:58:04;;;;;;;7.68;6.65;;;4.70;99.90;;;;;;6185503;23;20001;-72
2021/12/04 04:00:30;;;;;;;8.77;7.20;;;4.70;99.90;;;;;;6185304;23;20513;-72
2021/12/04 04:02:59;;;;;;;8.13;6.88;;;4.70;99.90;;;;;;6185155;23;20009;-72
2021/12/04 04:05:25;;;;;;;8.45;7.20;;;4.70;99.90;;;;;;6185425;23;20332;-72
2021/12/04 04:07:51;;;;;;;8.95;7.50;;;4.70;99.90;;;;;;6185390;23;20032;-72
2021/12/04 04:10:16;;;;;;;8.75;6.82;;;4.70;99.90;;;;;;6185124;23;20008;-72
2021/12/04 04:12:42;;;;;;;9.20;7.50;;;4.70;99.90;;;;;;6185245;23;20005;-72
2021/12/04 04:15:08;;;;;;;9.93;7.30;;;4.70;99.90;;;;;;6185187;23;20064;-72
2021/12/04 04:17:42;;;;;;;9.15;6.97;;;4.70;99.90;;;;;;6185068;23;19993;-72
2021/12/04 04:20:11;;;;;;;8.43;7.20;;;4.60;99.90;;;;;;6183542;23;20001;-72
2021/12/04 04:22:37;;;;;;;11.60;7.65;;;4.70;99.90;;;;;;6183371;23;20005;-72
2021/12/04 04:25:03;;;;;;;9.35;6.75;;;4.60;99.90;;;;;;6185246;23;20001;-72
2021/12/04 04:27:29;;;;;;;8.82;6.85;;;4.60;99.90;;;;;;6185292;23;20001;-72
2021/12/04 04:30:02;;;;;;;8.15;6.43;;;4.60;99.90;;;;;;6185688;23;20100;-79
2021/12/04 04:32:33;;;;;;;8.40;7.20;;;4.60;99.90;;;;;;6186661;23;19997;-74
2021/12/04 04:35:08;;;;;;;9.02;6.85;;;4.60;99.90;;;;;;6186036;23;20008;-74
2021/12/04 05:13:03;;;;;;;10.50;7.05;;;4.50;99.90;;;;;;6152829;23;20025;-72
2021/12/04 05:20:53;;;;;;;8.23;7.07;;;4.40;99.90;;;;;;6184584;23;20016;-74
2021/12/04 05:23:23;;;;;;;10.13;7.03;;;4.50;99.90;;;;;;6184320;23;20005;-72
2021/12/04 05:25:50;;;;;;;10.13;7.47;;;4.50;99.90;;;;;;6184478;23;20011;-74
2021/12/04 05:28:16;;;;;;;8.80;7.05;;;4.50;99.90;;;;;;6184520;23;20452;-74
2021/12/04 05:30:43;;;;;;;9.98;7.47;;;4.50;99.90;;;;;;6182929;23;20009;-74
2021/12/04 05:33:08;;;;;;;10.77;7.35;;;4.60;99.90;;;;;;6182700;23;20031;-75
2021/12/04 05:35:34;;;;;;;12.30;7.82;;;4.60;99.90;;;;;;6184284;23;20417;-73
2021/12/04 05:38:00;;;;;;;8.88;7.47;;;4.60;99.90;;;;;;6184718;23;20092;-72
2021/12/04 05:40:26;;;;;;;9.05;7.40;;;4.60;99.90;;;;;;6184393;23;20433;-72
2021/12/04 05:42:59;;;;;;;10.43;8.00;;;4.60;99.90;;;;;;6184377;23;20012;-72
2021/12/04 05:45:26;;;;;;;9.43;7.72;;;4.70;99.90;;;;;;6182763;23;20008;-72
2021/12/04 05:48:06;;;;;;;12.00;8.38;;;4.70;99.90;;;;;;6184331;23;19997;-73
2021/12/04 05:55:28;;;;;;;9.73;7.57;;;4.70;99.90;;;;;;6184252;23;20437;-74
2021/12/04 05:57:54;;;;;;;8.90;7.47;;;4.70;99.90;;;;;;6182682;23;20345;-74
2021/12/04 06:00:23;;;;;;;8.90;7.80;;;4.60;99.90;;;;;;6184316;23;20004;-74
2021/12/04 06:02:49;;;;;;;9.45;7.32;;;4.70;99.90;;;;;;6183869;23;20392;-74
2021/12/04 06:05:17;;;;;;;10.73;7.28;;;4.60;99.90;;;;;;6183839;23;20007;-74
2021/12/04 06:07:43;;;;;;;11.30;7.43;;;4.70;99.90;;;;;;6182642;23;20005;-74
2021/12/04 06:10:10;;;;;;;10.20;7.28;;;4.70;99.90;;;;;;6184144;23;19997;-74
2021/12/04 06:12:36;;;;;;;10.32;7.57;;;4.70;99.90;;;;;;6184020;23;20318;-74
2021/12/04 06:15:03;;;;;;;9.02;6.82;;;4.70;99.90;;;;;;6184202;23;20004;-75
2021/12/04 06:17:29;;;;;;;9.95;8.23;;;4.70;99.90;;;;;;6183982;23;20005;-74
2021/12/04 06:22:41;;;;;;;8.05;7.07;;;4.70;99.90;;;;;;6183914;23;20392;-74
2021/12/04 06:25:19;;;;;;;12.55;7.78;;;4.60;99.90;;;;;;6184020;23;20040;-74
2021/12/04 06:27:46;;;;;;;8.65;7.40;;;4.60;99.90;;;;;;6183995;23;20020;-74
2021/12/04 06:30:15;;;;;;;9.80;7.57;;;4.60;99.90;;;;;;6183721;23;20017;-74
2021/12/04 06:32:42;;;;;;;12.38;7.30;;;4.70;99.90;;;;;;6183779;23;20005;-74
2021/12/04 06:35:10;;;;;;;10.60;7.22;;;4.70;99.90;;;;;;6182436;23;20001;-74
2021/12/04 06:37:37;;;;;;;12.00;8.25;;;4.70;99.90;;;;;;6184064;23;20004;-74
2021/12/04 06:40:04;;;;;;;8.32;7.10;;;4.70;99.90;;;;;;6183680;23;20025;-74
2021/12/04 06:42:30;;;;;;;11.02;6.88;;;4.70;99.90;;;;;;6183816;23;20004;-74
2021/12/04 06:44:57;;;;;;;9.60;7.53;;;4.70;99.90;;;;;;6184074;23;20001;-74
2021/12/04 06:47:23;;;;;;;8.23;6.35;;;4.80;99.90;;;;;;6183759;23;20480;-72
2021/12/04 06:49:52;;;;;;;9.13;7.18;;;4.80;99.90;;;;;;6183620;23;20001;-73
2021/12/04 06:52:22;;;;;;;7.97;6.65;;;4.80;99.90;;;;;;6183843;23;20001;-72
2021/12/04 06:55:00;;;;;;;10.75;7.18;;;4.80;99.90;;;;;;6183611;23;20001;-72
2021/12/04 06:57:29;;;;;;;10.18;6.78;;;4.90;99.90;;;;;;6183580;23;20005;-74
2021/12/04 06:59:56;;;;;;;8.48;6.80;;;4.90;99.90;;;;;;6182047;23;20028;-74
2021/12/04 07:02:22;;;;;;;8.52;6.82;;;4.90;99.90;;;;;;6183551;23;20449;-74
2021/12/04 07:04:48;;;;;;;7.53;6.68;;;4.90;99.90;;;;;;6183789;23;20001;-74
2021/12/04 07:07:15;;;;;;;8.00;7.20;;;4.90;99.90;;;;;;6183366;23;20076;-74
2021/12/04 07:09:41;;;;;;;10.38;7.13;;;4.90;99.90;;;;;;6183647;23;20008;-74
2021/12/04 07:12:08;;;;;;;9.35;7.72;;;4.90;99.90;;;;;;6182137;23;20324;-74
2021/12/04 07:14:34;;;;;;;11.95;7.28;;;4.90;99.90;;;;;;6183246;23;20381;-74
2021/12/04 07:17:02;;;;;;;8.43;7.32;;;5.00;99.90;;;;;;6183267;23;20140;-75
2021/12/04 07:19:29;;;;;;;7.72;6.68;;;4.90;99.90;;;;;;6183597;23;20043;-72
2021/12/04 07:21:55;;;;;;;8.05;7.18;;;4.80;99.90;;;;;;6183654;23;20056;-72
2021/12/04 07:24:21;;;;;;;10.82;7.82;;;4.80;99.90;;;;;;6181176;23;20005;-72
2021/12/04 07:26:47;;;;;;;8.23;7.18;;;4.80;99.90;;;;;;6181320;23;20020;-72
2021/12/04 07:29:13;;;;;;;8.30;7.00;;;4.80;99.90;;;;;;6182379;23;20005;-72
2021/12/04 07:31:39;;;;;;;10.10;7.68;;;4.80;99.90;;;;;;6182776;23;20012;-72
2021/12/04 07:34:06;;;;;;;7.80;7.00;;;4.80;99.90;;;;;;6184583;23;20321;-72
2021/12/04 07:36:32;;;;;;;9.05;6.80;;;4.90;99.90;;;;;;6184397;23;20002;-72
2021/12/04 07:38:59;;;;;;;9.30;7.45;;;4.90;99.90;;;;;;6184776;23;20001;-72
2021/12/04 07:41:25;;;;;;;10.75;8.07;;;4.90;99.90;;;;;;6184641;23;20445;-72
2021/12/04 07:43:52;;;;;;;8.07;7.05;;;4.90;99.90;;;;;;6182879;23;20009;-72
2021/12/04 07:46:17;;;;;;;8.23;7.13;;;5.00;99.90;;;;;;6185092;23;20556;-74
2021/12/04 07:48:43;;;;;;;8.38;7.18;;;5.00;99.90;;;;;;6184226;23;20088;-72
2021/12/04 07:51:09;;;;;;;7.80;6.60;;;5.00;99.90;;;;;;6184730;23;20002;-74
2021/12/04 07:53:35;;;;;;;10.60;7.78;;;5.00;99.90;;;;;;6183970;23;20009;-74
2021/12/04 07:56:01;;;;;;;10.35;7.50;;;5.00;99.90;;;;;;6184540;23;20012;-72
2021/12/04 07:58:27;;;;;;;9.07;7.05;;;5.00;99.90;;;;;;6184450;23;20448;-72
2021/12/04 08:00:53;;;;;;;8.95;7.07;;;5.00;99.90;;;;;;6182429;23;20001;-72
2021/12/04 08:03:19;;;;;;;9.77;7.55;;;5.00;99.90;;;;;;6183930;23;20582;-72
2021/12/04 08:05:46;;;;;;;10.70;7.68;;;5.00;99.90;;;;;;6183925;23;20001;-72
2021/12/04 08:08:12;;;;;;;11.23;8.50;;;5.00;99.90;;;;;;6184192;23;20005;-72
2021/12/04 08:10:39;;;;;;;10.50;7.43;;;5.00;99.90;;;;;;6182909;23;20087;-72
2021/12/04 08:13:05;;;;;;;10.60;8.27;;;5.00;99.90;;;;;;6182797;23;20096;-72
2021/12/04 08:15:32;;;;;;;12.80;8.25;;;5.00;99.90;;;;;;6184529;23;20032;-72
2021/12/04 08:17:58;;;;;;;9.75;7.30;;;5.00;99.90;;;;;;6184525;23;20021;-72
2021/12/04 08:20:26;;;;;;;10.23;7.97;;;5.00;99.90;;;;;;6183029;23;20008;-74
2021/12/04 08:22:52;;;;;;;9.63;7.63;;;5.00;99.90;;;;;;6184359;23;20004;-72
2021/12/04 08:25:19;;;;;;;11.13;8.60;;;5.00;99.90;;;;;;6184112;23;19985;-73
2021/12/04 08:27:46;;;;;;;12.38;8.63;;;5.00;99.90;;;;;;6184901;23;20008;-73
2021/12/04 08:30:16;;;;;;;11.10;8.90;;;5.10;99.90;;;;;;6185129;23;20008;-72
2021/12/04 08:32:43;;;;;;;13.32;9.32;;;5.10;99.90;;;;;;6184294;23;20001;-72
2021/12/04 08:35:11;;;;;;;12.20;9.15;;;5.20;99.90;;;;;;6184402;23;19997;-74
2021/12/04 08:37:37;;;;;;;13.60;9.27;;;5.30;99.90;;;;;;6184458;23;20001;-74
2021/12/04 08:40:09;;;;;;;11.95;8.60;;;5.30;99.90;;;;;;6184549;23;20052;-74
2021/12/04 08:42:35;;;;;;;11.15;8.05;;;5.30;99.90;;;;;;6184904;23;19997;-74
2021/12/04 08:45:01;;;;;;;11.38;8.27;;;5.30;99.90;;;;;;6185045;23;20005;-74
2021/12/04 08:47:26;;;;;;;12.63;8.65;;;5.40;99.90;;;;;;6183031;23;20017;-74
2021/12/04 08:49:52;;;;;;;10.07;7.63;;;5.50;99.90;;;;;;6183486;23;20012;-74
2021/12/04 08:52:18;;;;;;;10.63;8.32;;;5.50;99.90;;;;;;6185005;23;20088;-74
2021/12/04 08:54:45;;;;;;;12.32;8.05;;;5.60;99.90;;;;;;6183484;23;20009;-74
2021/12/04 08:57:11;;;;;;;10.80;8.68;;;5.60;99.90;;;;;;6183315;23;20425;-74
2021/12/04 08:59:37;;;;;;;9.77;7.72;;;5.60;99.90;;;;;;6183407;23;20108;-74
2021/12/04 09:02:03;;;;;;;9.48;7.78;;;5.70;99.90;;;;;;6184884;23;20406;-74
2021/12/04 09:04:32;;;;;;;10.27;8.23;;;5.80;99.90;;;;;;6185025;23;20012;-74
2021/12/04 09:06:59;;;;;;;8.98;7.10;;;5.80;99.90;;;;;;6184768;23;20005;-74
2021/12/04 09:09:27;;;;;;;10.38;8.55;;;5.80;99.90;;;;;;6184838;23;20004;-74
2021/12/04 09:11:59;;;;;;;11.57;8.20;;;5.90;99.90;;;;;;6182847;23;20012;-74
2021/12/04 09:14:29;;;;;;;9.80;8.30;;;5.90;99.90;;;;;;6184262;23;20008;-72
2021/12/04 09:16:59;;;;;;;12.20;8.88;;;6.00;99.90;;;;;;6184887;23;20488;-72
2021/12/04 09:19:25;;;;;;;14.23;10.07;;;6.00;99.90;;;;;;6184640;23;19997;-72
2021/12/04 09:21:51;;;;;;;10.32;8.88;;;6.00;99.90;;;;;;6184890;23;20005;-72
2021/12/04 09:24:24;;;;;;;11.07;8.75;;;6.10;99.90;;;;;;6184614;23;20071;-72
2021/12/04 10:13:20;;;;;;;10.20;7.22;;;6.50;99.90;;;;;;6182827;23;20104;-74
2021/12/04 10:15:47;;;;;;;8.77;6.65;;;6.50;99.90;;;;;;6177041;23;20635;-73
2021/12/04 10:34:34;;;;;;;9.98;6.20;;;6.60;99.90;;;;;;6184560;23;20352;-74
2021/12/04 10:37:08;;;;;;;9.30;6.60;;;6.50;99.90;;;;;;6181181;23;19998;-72
2021/12/04 10:39:35;;;;;;;8.05;6.18;;;6.50;99.90;;;;;;6181413;23;20006;-74
2021/12/04 10:42:04;;;;;;;8.15;6.80;;;6.50;99.90;;;;;;6182265;23;20001;-74
2021/12/04 10:44:31;;;;;;;9.73;6.75;;;6.60;99.90;;;;;;6183724;23;20029;-74
2021/12/04 10:46:59;;;;;;;9.88;7.10;;;6.50;99.90;;;;;;6181738;23;20095;-74
2021/12/04 10:49:36;;;;;;;12.73;6.72;;;6.50;99.90;;;;;;6182736;23;20008;-74
2021/12/04 10:52:04;;;;;;;12.73;6.68;;;6.50;99.90;;;;;;6180026;23;20341;-72
2021/12/04 10:54:38;;;;;;;8.55;6.78;;;6.50;99.90;;;;;;6183800;23;20322;-72
2021/12/04 11:00:14;;;;;;;10.07;6.50;;;6.60;99.90;;;;;;6183879;23;20488;-74
2021/12/04 11:02:45;;;;;;;8.52;6.22;;;6.60;99.90;;;;;;6182219;23;20009;-74
2021/12/04 11:20:08;;;;;;;13.88;8.45;;;6.60;99.90;;;;;;6183511;23;20063;-74
2021/12/04 11:25:32;;;;;;;9.60;7.65;;;6.50;99.90;;;;;;6186283;23;20009;-74
2021/12/04 11:42:03;;;;;;;10.85;7.78;;;6.60;99.90;;;;;;6186078;23;20380;-74
2021/12/04 11:46:43;;;;;;;12.23;7.78;;;6.60;99.90;;;;;;6184286;23;20013;-74
2021/12/04 11:49:18;;;;;;;10.50;7.82;;;6.60;99.90;;;;;;6183348;23;20123;-74
2021/12/04 11:51:57;;;;;;;11.48;7.68;;;6.60;99.90;;;;;;6182041;23;20005;-74
2021/12/04 11:54:26;;;;;;;9.35;7.53;;;6.70;99.90;;;;;;6181867;23;20345;-74
2021/12/04 11:57:26;;;;;;;10.23;7.35;;;6.60;99.90;;;;;;6183193;23;20005;-72
2021/12/04 11:59:52;;;;;;;14.18;8.68;;;6.70;99.90;;;;;;6144580;23;20464;-72
2021/12/04 12:02:21;;;;;;;15.55;8.85;;;6.70;99.90;;;;;;6183621;23;20009;-72
2021/12/04 12:04:52;;;;;;;11.90;8.38;;;6.60;99.90;;;;;;6185301;23;20004;-72
2021/12/04 12:07:20;;;;;;;10.27;8.13;;;6.70;99.90;;;;;;6181511;23;20024;-74
2021/12/04 12:09:48;;;;;;;11.73;7.20;;;6.70;99.90;;;;;;6183684;23;20036;-74
2021/12/04 12:12:16;;;;;;;12.10;8.50;;;6.60;99.90;;;;;;6182016;23;20580;-74
2021/12/04 12:14:53;;;;;;;10.95;7.90;;;6.70;99.90;;;;;;6183779;23;20395;-74
2021/12/04 12:17:35;;;;;;;12.52;7.90;;;6.70;99.90;;;;;;6183776;23;20368;-72
2021/12/04 12:20:03;;;;;;;15.52;9.65;;;6.70;99.90;;;;;;6185417;23;20004;-74
2021/12/04 12:22:44;;;;;;;11.13;8.93;;;6.70;99.90;;;;;;6182642;23;20436;-74
2021/12/04 12:26:00;;;;;;;11.95;8.10;;;6.70;99.90;;;;;;6181814;23;20400;-72
2021/12/04 12:33:45;;;;;;;10.77;7.78;;;6.70;99.90;;;;;;6182397;23;20070;-82
2021/12/04 12:36:13;;;;;;;9.98;7.35;;;6.80;99.90;;;;;;6181107;23;19998;-82
2021/12/04 12:38:53;;;;;;;13.25;7.90;;;6.80;99.90;;;;;;6184156;23;20336;-82
2021/12/04 12:41:42;;;;;;;13.38;8.18;;;6.90;99.90;;;;;;6183390;23;20028;-79
2021/12/04 12:44:23;;;;;;;12.63;8.88;;;6.90;99.90;;;;;;6185290;23;20005;-81
2021/12/04 12:47:00;;;;;;;9.63;8.27;;;6.90;99.90;;;;;;6185011;23;20008;-81
2021/12/04 12:49:38;;;;;;;13.50;9.18;;;6.90;99.90;;;;;;6183579;23;20138;-82
2021/12/04 12:52:06;;;;;;;12.73;8.98;;;7.00;99.90;;;;;;6183554;23;20437;-82
2021/12/04 12:54:38;;;;;;;11.48;8.52;;;7.00;99.90;;;;;;6183489;23;20017;-82
2021/12/04 12:57:19;;;;;;;;;;;6.90;99.90;;;;;;6185718;23;20001;-80
2021/12/04 13:14:34;;;;;;;16.73;10.32;;;6.80;99.90;;;;;;6152182;23;20492;-82
2021/12/04 13:17:12;;;;;;;18.25;11.23;;;6.80;99.90;;;;;;6159451;23;20024;-79
2021/12/04 13:19:42;;;;;;;20.90;13.00;;;6.80;99.90;;;;;;6184768;23;20084;-72
2021/12/04 13:22:14;;;;;;;20.70;12.20;;;6.90;99.90;;;;;;6182790;23;20095;-73
2021/12/04 13:24:42;;;;;;;20.95;10.10;;;6.90;99.90;;;;;;6182939;23;20009;-72
2021/12/04 13:29:46;;;;;;;15.60;11.07;;;7.00;99.90;;;;;;6184601;23;20012;-72
2021/12/04 13:32:15;;;;;;;20.83;12.10;;;6.90;99.90;;;;;;6184580;23;20007;-74
2021/12/04 13:34:42;;;;;;;16.48;10.75;;;6.80;99.90;;;;;;6184363;23;20001;-74
2021/12/04 13:37:09;;;;;;;16.35;10.75;;;6.80;99.90;;;;;;6182912;23;20001;-74
2021/12/04 13:39:38;;;;;;;20.48;9.98;;;6.90;99.90;;;;;;6184451;23;20005;-72
2021/12/04 13:42:04;;;;;;;19.80;11.25;;;6.90;99.90;;;;;;6184367;23;20001;-72
2021/12/04 13:44:32;;;;;;;24.10;11.57;;;6.90;99.90;;;;;;6184381;23;20032;-72
2021/12/04 13:47:03;;;;;;;16.20;9.65;;;7.00;99.90;;;;;;6184439;23;20005;-72
2021/12/04 13:49:37;;;;;;;15.13;9.77;;;6.90;99.90;;;;;;6184569;23;20433;-72
2021/12/04 13:52:09;;;;;;;15.55;9.32;;;7.00;99.90;;;;;;6184459;23;20008;-72
2021/12/04 13:54:45;;;;;;;14.90;9.90;;;7.10;99.90;;;;;;6184057;23;20001;-74
2021/12/04 13:57:13;;;;;;;11.90;9.00;;;7.10;99.90;;;;;;6184365;23;20056;-74
2021/12/04 13:59:40;;;;;;;14.35;9.52;;;7.10;99.90;;;;;;6184135;23;20001;-72
2021/12/04 14:02:06;;;;;;;16.58;9.10;;;7.10;99.90;;;;;;6184075;23;20005;-72
2021/12/04 14:04:32;;;;;;;14.60;9.55;;;7.10;99.90;;;;;;6184472;23;20456;-72
2021/12/04 14:07:00;;;;;;;12.40;9.35;;;7.20;99.90;;;;;;6184181;23;20029;-72
2021/12/04 14:09:37;;;;;;;17.70;9.95;;;7.10;99.90;;;;;;6184249;23;20001;-74
2021/12/04 14:12:05;;;;;;;14.18;9.90;;;7.00;99.90;;;;;;6184192;23;20005;-72
2021/12/04 14:14:34;;;;;;;18.23;10.90;;;7.00;99.90;;;;;;6182337;23;20016;-72
2021/12/04 14:17:18;;;;;;;17.70;9.93;;;7.10;99.90;;;;;;6184029;23;20499;-74
2021/12/04 14:19:45;;;;;;;14.88;10.07;;;7.10;99.90;;;;;;6182491;23;20047;-74
2021/12/04 14:22:19;;;;;;;18.00;10.45;;;7.00;99.90;;;;;;6184217;23;20036;-74
2021/12/04 14:24:50;;;;;;;15.95;9.55;;;7.00;99.90;;;;;;6183633;23;20364;-72
2021/12/04 14:27:28;;;;;;;17.92;10.30;;;7.00;99.90;;;;;;6182468;23;20032;-75
2021/12/04 14:29:57;;;;;;;16.55;10.88;;;6.90;99.90;;;;;;6182632;23;20036;-74
2021/12/04 14:32:28;;;;;;;13.40;9.95;;;6.90;99.90;;;;;;6183835;23;20009;-74
2021/12/04 14:34:56;;;;;;;17.67;9.85;;;6.90;99.90;;;;;;6182180;23;20053;-72
2021/12/04 14:37:23;;;;;;;16.70;9.88;;;6.90;99.90;;;;;;6184224;23;20083;-72
2021/12/04 14:39:50;;;;;;;16.73;11.43;;;6.90;99.90;;;;;;6182845;23;20011;-74
2021/12/04 14:42:22;;;;;;;16.02;11.05;;;6.90;99.90;;;;;;6184968;23;20004;-74
2021/12/04 14:44:51;;;;;;;19.75;11.18;;;6.80;99.90;;;;;;6184500;23;20011;-74
2021/12/04 14:47:19;;;;;;;20.25;12.27;;;6.70;99.90;;;;;;6184127;23;20014;-74
2021/12/04 14:49:48;;;;;;;20.75;11.52;;;6.70;99.90;;;;;;6181911;23;20464;-74
2021/12/04 14:52:22;;;;;;;21.88;11.45;;;6.70;99.90;;;;;;6183723;23;20002;-74
2021/12/04 14:54:50;;;;;;;16.05;11.13;;;6.70;99.90;;;;;;6183626;23;20012;-74
2021/12/04 14:57:19;;;;;;;16.20;10.20;;;6.70;99.90;;;;;;6183731;23;20341;-74
2021/12/04 14:59:45;;;;;;;16.70;12.20;;;6.70;99.90;;;;;;6183649;23;20001;-74
2021/12/04 15:02:18;;;;;;;16.50;10.30;;;6.70;99.90;;;;;;6183698;23;20009;-75
2021/12/04 15:04:44;;;;;;;15.75;11.57;;;6.70;99.90;;;;;;6183808;23;20005;-74
2021/12/04 15:07:24;;;;;;;17.05;10.77;;;6.70;99.90;;;;;;6183667;23;20134;-74
2021/12/04 15:09:50;;;;;;;17.50;11.50;;;6.70;99.90;;;;;;6183652;23;20001;-74
2021/12/04 15:12:32;;;;;;;15.50;10.63;;;6.70;99.90;;;;;;6182125;23;20009;-74
2021/12/04 15:15:02;;;;;;;16.98;11.32;;;6.70;99.90;;;;;;6183323;23;20001;-74
2021/12/04 15:17:28;;;;;;;18.75;11.25;;;6.70;99.90;;;;;;6183680;23;20028;-74
2021/12/04 15:20:08;;;;;;;18.90;11.95;;;6.70;99.90;;;;;;6181864;23;20495;-74
2021/12/04 15:22:42;;;;;;;16.67;11.43;;;6.70;99.90;;;;;;6181990;23;20033;-74
2021/12/04 15:25:13;;;;;;;16.35;11.82;;;6.70;99.90;;;;;;6183556;23;20332;-74
2021/12/04 15:27:40;;;;;;;17.77;12.48;;;6.70;99.90;;;;;;6183706;23;20079;-74
2021/12/04 15:30:10;;;;;;;17.88;11.27;;;6.70;99.90;;;;;;6183745;23;20001;-74
2021/12/04 15:32:39;;;;;;;17.08;12.15;;;6.70;99.90;;;;;;6183801;23;20081;-74
2021/12/04 15:35:31;;;;;;;14.20;10.30;;;6.60;99.90;;;;;;6183079;23;20049;-74
2021/12/04 15:38:07;;;;;;;20.02;11.95;;;6.60;99.90;;;;;;6187080;23;20056;-74
2021/12/04 15:40:43;;;;;;;16.27;11.63;;;6.60;99.90;;;;;;6186872;23;20012;-74
2021/12/04 15:46:31;;;;;;;17.15;11.98;;;6.60;99.90;;;;;;6186792;23;20140;-74
2021/12/04 15:54:18;;;;;;;19.25;12.25;;;6.60;99.90;;;;;;6186716;23;20013;-74
2021/12/04 15:56:48;;;;;;;17.52;12.60;;;6.60;99.90;;;;;;6185208;23;20012;-74
2021/12/04 15:59:15;;;;;;;16.85;11.98;;;6.60;99.90;;;;;;6186670;23;19997;-74
2021/12/04 16:01:41;;;;;;;16.65;12.15;;;6.60;99.90;;;;;;6184968;23;20106;-74
2021/12/04 16:04:38;;;;;;;21.67;12.05;;;6.60;99.90;;;;;;6185289;23;20088;-74
2021/12/04 16:07:04;;;;;;;16.30;11.60;;;6.60;99.90;;;;;;6184770;23;20013;-75
2021/12/04 16:09:35;;;;;;;17.80;11.82;;;6.60;99.90;;;;;;6186707;23;20451;-74
2021/12/04 16:12:13;;;;;;;17.20;12.43;;;6.60;99.90;;;;;;6186567;23;20172;-74
2021/12/04 16:15:00;;;;;;;15.77;11.75;;;6.60;99.90;;;;;;6186606;23;20079;-74
2021/12/04 16:17:26;;;;;;;19.17;12.65;;;6.60;99.90;;;;;;6185699;23;20005;-74
2021/12/04 16:20:04;;;;;;;22.48;13.55;;;6.50;99.90;;;;;;6186626;23;20345;-74